Time;durP1;ratioP1;P1;durP2;ratioP2;P2;SDS_P1;SDS_P2;PMS_P1;PMS_P2;Temp;Humidity;BMP_temperature;BMP_pressure;BME280_temperature;BME280_humidity;BME280_pressure;Samples;Min_cycle;Max_cycle;Signal;HPM_P1;HPM_P2
2021/12/26 00:00:10;;;;;;;7.47;3.22;;;-4.20;89.90;;;;;;5114231;28;20039;-69
2021/12/26 00:02:36;;;;;;;6.95;3.80;;;-4.30;90.00;;;;;;5112528;28;20043;-69
2021/12/26 00:05:03;;;;;;;5.50;3.05;;;-4.30;90.30;;;;;;5114173;28;20046;-69
2021/12/26 00:07:29;;;;;;;3.88;2.42;;;-4.30;90.10;;;;;;5112774;28;20395;-69
2021/12/26 00:09:54;;;;;;;4.53;2.60;;;-4.30;90.10;;;;;;5113981;28;20047;-69
2021/12/26 00:12:20;;;;;;;6.30;3.60;;;-4.20;89.60;;;;;;5112944;28;20044;-69
2021/12/26 00:14:46;;;;;;;7.38;3.13;;;-4.20;89.70;;;;;;5112945;28;20046;-69
2021/12/26 00:17:11;;;;;;;6.63;3.13;;;-4.20;89.40;;;;;;5113445;28;20576;-69
2021/12/26 00:19:37;;;;;;;8.73;2.80;;;-4.30;89.80;;;;;;5113828;28;20063;-69
2021/12/26 00:22:03;;;;;;;9.98;3.60;;;-4.30;89.40;;;;;;5112881;28;20371;-69
2021/12/26 00:24:28;;;;;;;5.97;3.05;;;-4.30;89.30;;;;;;5112536;28;20044;-69
2021/12/26 00:26:54;;;;;;;6.22;2.80;;;-4.30;89.70;;;;;;5111875;28;20044;-70
2021/12/26 00:29:20;;;;;;;6.28;3.05;;;-4.40;89.90;;;;;;5112629;28;20485;-69
2021/12/26 00:31:45;;;;;;;4.45;3.22;;;-4.30;90.00;;;;;;5112726;28;20120;-70
2021/12/26 00:34:11;;;;;;;5.95;2.63;;;-4.40;89.40;;;;;;5114077;28;20035;-70
2021/12/26 00:36:37;;;;;;;4.90;2.42;;;-4.30;88.80;;;;;;5113159;28;20071;-70
2021/12/26 00:39:04;;;;;;;6.00;2.15;;;-4.20;88.40;;;;;;5112478;28;20051;-70
2021/12/26 00:41:30;;;;;;;5.07;2.80;;;-4.20;87.50;;;;;;5113852;28;20043;-70
2021/12/26 00:43:55;;;;;;;2.90;2.08;;;-4.00;86.10;;;;;;5112775;28;20387;-70
2021/12/26 00:46:21;;;;;;;3.72;2.35;;;-3.90;85.10;;;;;;5112994;28;20039;-69
2021/12/26 00:48:47;;;;;;;4.18;2.00;;;-4.10;84.50;;;;;;5112273;28;20503;-69
2021/12/26 00:51:13;;;;;;;2.88;2.05;;;-4.10;82.90;;;;;;5112815;28;20074;-69
2021/12/26 00:53:38;;;;;;;3.88;2.30;;;-4.10;81.70;;;;;;5113236;28;20027;-69
2021/12/26 00:56:04;;;;;;;6.07;2.55;;;-4.10;81.60;;;;;;5112042;28;20035;-69
2021/12/26 00:58:30;;;;;;;2.85;2.05;;;-4.00;80.60;;;;;;5112497;28;20550;-69
2021/12/26 01:00:56;;;;;;;4.63;1.95;;;-3.90;79.90;;;;;;5112240;28;20395;-69
2021/12/26 01:03:22;;;;;;;5.10;2.40;;;-3.90;79.10;;;;;;5113245;28;20514;-70
2021/12/26 01:05:53;;;;;;;4.13;2.20;;;-4.00;78.30;;;;;;5111489;28;20112;-70
2021/12/26 01:08:20;;;;;;;6.32;2.30;;;-4.00;78.70;;;;;;5113296;28;20046;-70
2021/12/26 01:10:56;;;;;;;4.85;2.17;;;-4.00;77.90;;;;;;5113317;28;20039;-70
2021/12/26 01:13:33;;;;;;;4.60;2.55;;;-4.10;78.00;;;;;;5112288;28;20111;-69
2021/12/26 01:16:01;;;;;;;5.57;2.40;;;-4.10;78.20;;;;;;5112124;28;20105;-71
2021/12/26 01:18:32;;;;;;;5.03;2.47;;;-4.10;78.10;;;;;;5115282;28;20035;-70
2021/12/26 01:21:06;;;;;;;3.35;2.03;;;-4.10;77.50;;;;;;5115671;28;20046;-70
2021/12/26 01:23:33;;;;;;;5.72;2.15;;;-4.10;78.20;;;;;;5117446;28;20391;-70
2021/12/26 01:25:59;;;;;;;5.05;2.15;;;-4.00;77.50;;;;;;5115398;28;20039;-70
2021/12/26 01:28:28;;;;;;;4.43;2.30;;;-4.00;77.40;;;;;;5116740;28;20043;-70
2021/12/26 01:30:55;;;;;;;2.72;2.33;;;-4.10;76.80;;;;;;5116614;28;20039;-70
2021/12/26 01:33:21;;;;;;;5.47;2.30;;;-4.00;76.90;;;;;;5116129;28;20151;-69
2021/12/26 01:35:47;;;;;;;2.63;1.92;;;-4.10;76.80;;;;;;5098093;28;20104;-70
2021/12/26 01:38:14;;;;;;;3.95;2.38;;;-4.10;76.10;;;;;;5115411;28;20043;-70
2021/12/26 01:40:58;;;;;;;5.10;2.30;;;-4.10;76.10;;;;;;5115545;28;20093;-70
2021/12/26 01:43:25;;;;;;;;;;;-4.10;76.60;;;;;;5115860;28;20123;-69
2021/12/26 01:45:53;;;;;;;3.65;2.33;;;-4.10;76.80;;;;;;5116082;27;19923;-69
2021/12/26 01:48:19;;;;;;;5.65;1.92;;;-4.10;76.40;;;;;;5116706;28;20035;-70
2021/12/26 01:50:47;;;;;;;3.63;2.17;;;-4.20;76.70;;;;;;5116492;28;20063;-69
2021/12/26 01:53:13;;;;;;;5.40;2.38;;;-4.10;77.10;;;;;;5116343;28;20080;-70
2021/12/26 01:55:43;;;;;;;4.78;1.95;;;-4.20;77.20;;;;;;5116035;27;20130;-70
2021/12/26 01:58:17;;;;;;;4.57;2.70;;;-4.20;77.10;;;;;;5115220;28;20470;-69
2021/12/26 02:00:53;;;;;;;6.05;2.53;;;-4.20;77.50;;;;;;5116412;28;20048;-69
2021/12/26 02:03:19;;;;;;;3.28;2.40;;;-4.20;77.70;;;;;;5115710;28;20043;-69
2021/12/26 02:05:44;;;;;;;4.25;2.65;;;-4.30;77.70;;;;;;5114565;28;20050;-69
2021/12/26 02:08:10;;;;;;;5.60;2.33;;;-4.20;77.80;;;;;;5116243;28;20031;-69
2021/12/26 02:10:36;;;;;;;4.22;1.98;;;-4.30;77.80;;;;;;5115948;28;20054;-70
2021/12/26 02:13:02;;;;;;;5.43;2.28;;;-4.20;77.80;;;;;;5114846;28;20032;-70
2021/12/26 02:15:28;;;;;;;6.50;2.38;;;-4.30;77.70;;;;;;5116232;28;20047;-70
2021/12/26 02:17:53;;;;;;;4.82;2.35;;;-4.20;77.50;;;;;;5115802;28;20039;-70
2021/12/26 02:20:35;;;;;;;4.00;1.77;;;-4.30;78.10;;;;;;5114750;28;20036;-70
2021/12/26 02:23:09;;;;;;;3.38;2.15;;;-4.40;77.40;;;;;;5115068;28;20082;-70
2021/12/26 02:28:15;;;;;;;4.88;2.70;;;-4.30;77.40;;;;;;5116129;28;20387;-70
2021/12/26 02:30:40;;;;;;;2.90;1.98;;;-4.40;78.10;;;;;;5114963;28;20519;-70
2021/12/26 02:33:10;;;;;;;4.97;2.00;;;-4.40;78.40;;;;;;5115963;28;20119;-70
2021/12/26 02:35:38;;;;;;;4.82;2.13;;;-4.40;78.90;;;;;;5113831;28;20048;-70
2021/12/26 02:38:05;;;;;;;3.80;2.30;;;-4.40;78.60;;;;;;5114669;28;20043;-70
2021/12/26 02:40:31;;;;;;;3.80;1.90;;;-4.40;78.80;;;;;;5115334;28;20040;-69
2021/12/26 02:42:56;;;;;;;5.65;2.30;;;-4.50;79.00;;;;;;5115189;28;20036;-70
2021/12/26 02:45:22;;;;;;;4.30;2.45;;;-4.30;78.70;;;;;;5115252;28;20376;-70
2021/12/26 02:47:50;;;;;;;3.70;2.35;;;-4.40;78.30;;;;;;5113958;28;20353;-69
2021/12/26 02:50:19;;;;;;;5.30;2.50;;;-4.40;77.50;;;;;;5115251;28;20096;-69
2021/12/26 02:52:45;;;;;;;5.38;2.40;;;-4.40;78.10;;;;;;5114050;28;20043;-69
2021/12/26 02:55:13;;;;;;;4.70;1.92;;;-4.50;77.90;;;;;;5114909;28;20050;-69
2021/12/26 02:57:39;;;;;;;5.82;2.65;;;-4.50;78.20;;;;;;5114798;28;20155;-69
2021/12/26 03:00:11;;;;;;;2.80;1.90;;;-4.40;77.40;;;;;;5114354;28;20130;-70
2021/12/26 03:02:42;;;;;;;4.22;2.05;;;-4.50;77.10;;;;;;5115218;27;20050;-70
2021/12/26 03:05:08;;;;;;;5.40;2.47;;;-4.50;77.10;;;;;;5115238;28;20391;-70
2021/12/26 03:07:33;;;;;;;5.43;2.30;;;-4.40;76.80;;;;;;5114400;28;20035;-69
2021/12/26 03:10:00;;;;;;;3.47;2.10;;;-4.40;76.80;;;;;;5114859;28;20031;-69
2021/12/26 03:12:28;;;;;;;3.33;2.08;;;-4.40;76.70;;;;;;5114611;28;20114;-69
2021/12/26 03:14:54;;;;;;;4.90;2.30;;;-4.40;76.50;;;;;;5114739;28;20035;-69
2021/12/26 03:17:20;;;;;;;7.28;3.20;;;-4.50;76.60;;;;;;5114238;28;20043;-69
2021/12/26 03:19:46;;;;;;;4.13;2.53;;;-4.50;77.10;;;;;;5114570;28;20487;-69
2021/12/26 03:22:12;;;;;;;5.60;2.47;;;-4.50;77.00;;;;;;5114606;28;20038;-69
2021/12/26 03:24:39;;;;;;;3.42;2.33;;;-4.50;77.10;;;;;;5114539;28;20089;-70
2021/12/26 03:27:05;;;;;;;3.60;2.30;;;-4.60;77.90;;;;;;5113998;28;20063;-70
2021/12/26 03:29:32;;;;;;;5.00;2.38;;;-4.60;77.50;;;;;;5114549;28;20456;-70
2021/12/26 03:31:58;;;;;;;5.60;2.20;;;-4.70;77.90;;;;;;5114225;28;20051;-70
2021/12/26 03:34:24;;;;;;;4.50;2.30;;;-4.60;77.90;;;;;;5114438;28;20044;-70
2021/12/26 03:36:52;;;;;;;6.15;3.15;;;-4.70;77.70;;;;;;5113675;28;20039;-70
2021/12/26 03:39:19;;;;;;;5.22;2.83;;;-4.60;77.90;;;;;;5114572;28;20044;-70
2021/12/26 03:41:45;;;;;;;7.10;2.83;;;-4.60;77.80;;;;;;5114585;28;20039;-69
2021/12/26 03:44:11;;;;;;;4.30;2.47;;;-4.70;77.50;;;;;;5114315;28;20431;-69
2021/12/26 03:46:37;;;;;;;5.30;2.60;;;-4.70;77.80;;;;;;5113675;28;20395;-69
2021/12/26 03:49:05;;;;;;;5.95;2.47;;;-4.70;77.80;;;;;;5114205;28;20044;-70
2021/12/26 03:51:33;;;;;;;3.58;2.33;;;-4.70;77.80;;;;;;5114042;28;20050;-68
2021/12/26 03:54:00;;;;;;;6.05;2.53;;;-4.70;77.30;;;;;;5112749;28;20123;-69
2021/12/26 03:56:26;;;;;;;5.35;2.30;;;-4.60;76.90;;;;;;5112490;28;20050;-69
2021/12/26 03:58:51;;;;;;;5.53;2.22;;;-4.70;77.50;;;;;;5114509;28;20035;-69
2021/12/26 04:01:17;;;;;;;3.05;2.30;;;-4.70;77.40;;;;;;5113826;28;20043;-70
2021/12/26 04:03:43;;;;;;;4.82;2.53;;;-4.70;77.20;;;;;;5114104;28;20043;-70
2021/12/26 04:06:09;;;;;;;2.40;1.73;;;-4.70;77.30;;;;;;5113408;28;20060;-69
2021/12/26 04:08:34;;;;;;;3.25;2.13;;;-4.70;77.30;;;;;;5113975;28;20038;-70
2021/12/26 04:11:00;;;;;;;5.10;2.50;;;-4.80;76.90;;;;;;5113986;28;20067;-69
2021/12/26 04:13:26;;;;;;;4.28;2.20;;;-4.80;77.10;;;;;;5112712;28;20050;-70
2021/12/26 04:15:52;;;;;;;3.67;2.28;;;-4.70;76.60;;;;;;5113300;28;20036;-70
2021/12/26 04:18:18;;;;;;;5.57;2.40;;;-4.70;76.10;;;;;;5113699;28;20387;-69
2021/12/26 04:20:44;;;;;;;7.90;2.40;;;-4.70;75.70;;;;;;5113815;28;20055;-68
2021/12/26 04:23:11;;;;;;;6.93;2.42;;;-4.70;75.80;;;;;;5114246;28;20070;-69
2021/12/26 04:25:37;;;;;;;3.85;2.10;;;-4.70;75.70;;;;;;5112577;28;20055;-70
2021/12/26 04:28:03;;;;;;;3.67;1.88;;;-4.70;75.20;;;;;;5114123;28;20032;-70
2021/12/26 04:30:29;;;;;;;4.57;1.88;;;-4.60;75.30;;;;;;5113921;28;20039;-70
2021/12/26 04:32:55;;;;;;;5.90;3.15;;;-4.70;75.20;;;;;;5112446;28;20045;-70
2021/12/26 04:35:21;;;;;;;3.78;2.50;;;-4.70;74.80;;;;;;5113697;28;20035;-70
2021/12/26 04:37:47;;;;;;;6.28;2.00;;;-4.70;75.10;;;;;;5111719;28;20039;-70
2021/12/26 04:40:16;;;;;;;5.47;2.63;;;-4.80;75.10;;;;;;5114003;28;20040;-70
2021/12/26 04:42:44;;;;;;;3.05;1.98;;;-4.70;75.00;;;;;;5113703;28;20035;-70
2021/12/26 04:45:10;;;;;;;6.20;2.72;;;-4.70;75.10;;;;;;5113442;28;20044;-69
2021/12/26 04:47:37;;;;;;;4.80;2.03;;;-4.60;74.60;;;;;;5113750;28;20035;-70
2021/12/26 04:50:05;;;;;;;4.72;2.53;;;-4.70;74.70;;;;;;5113701;28;20050;-70
2021/12/26 04:52:31;;;;;;;5.72;2.60;;;-4.70;74.50;;;;;;5113716;28;20100;-69
2021/12/26 04:55:00;;;;;;;4.03;2.08;;;-4.60;74.80;;;;;;5117486;28;20479;-70
2021/12/26 04:57:27;;;;;;;5.63;2.90;;;-4.80;74.70;;;;;;5116975;28;20044;-70
2021/12/26 04:59:52;;;;;;;3.83;2.33;;;-4.70;75.10;;;;;;5116152;28;20502;-69
2021/12/26 05:02:18;;;;;;;4.28;2.03;;;-4.70;74.60;;;;;;5117165;28;20085;-69
2021/12/26 05:04:44;;;;;;;4.80;2.22;;;-4.70;74.10;;;;;;5098976;28;20040;-70
2021/12/26 05:07:10;;;;;;;5.63;2.92;;;-4.70;73.80;;;;;;5116834;28;20514;-70
2021/12/26 05:09:36;;;;;;;5.47;2.60;;;-4.50;74.00;;;;;;5117168;28;20044;-70
2021/12/26 05:12:01;;;;;;;4.45;2.38;;;-4.70;73.90;;;;;;5115691;28;20047;-69
2021/12/26 05:14:27;;;;;;;3.78;2.38;;;-4.70;74.20;;;;;;5117423;28;20123;-69
2021/12/26 05:16:52;;;;;;;4.65;2.63;;;-4.70;74.10;;;;;;5116749;28;20044;-69
2021/12/26 05:19:19;;;;;;;4.03;2.30;;;-4.70;74.10;;;;;;5117135;28;20035;-70
2021/12/26 05:21:44;;;;;;;4.70;2.47;;;-4.80;74.60;;;;;;5116992;28;20483;-70
2021/12/26 05:24:10;;;;;;;4.22;2.47;;;-4.80;74.70;;;;;;5116981;28;20024;-70
2021/12/26 05:26:35;;;;;;;3.80;2.25;;;-4.70;74.50;;;;;;5116599;28;20510;-70
2021/12/26 05:29:01;;;;;;;4.65;2.00;;;-4.80;74.80;;;;;;5116668;28;20075;-69
2021/12/26 05:31:27;;;;;;;2.97;1.90;;;-4.80;74.60;;;;;;5115335;28;20075;-70
2021/12/26 05:33:52;;;;;;;7.50;2.63;;;-4.80;74.20;;;;;;5116666;28;20035;-70
2021/12/26 05:36:18;;;;;;;4.53;2.28;;;-4.80;74.10;;;;;;5116273;28;20086;-70
2021/12/26 05:38:43;;;;;;;5.55;2.58;;;-4.80;73.90;;;;;;5116423;28;20511;-70
2021/12/26 05:41:09;;;;;;;6.22;2.55;;;-4.70;73.50;;;;;;5117150;28;20032;-69
2021/12/26 05:43:35;;;;;;;3.45;2.20;;;-4.70;72.70;;;;;;5116531;28;20076;-70
2021/12/26 05:46:01;;;;;;;6.53;2.45;;;-4.70;72.50;;;;;;5116034;28;20044;-69
2021/12/26 05:48:26;;;;;;;4.13;2.45;;;-4.70;73.20;;;;;;5116562;28;20035;-69
2021/12/26 05:50:52;;;;;;;5.57;2.42;;;-4.80;73.20;;;;;;5116332;28;20035;-69
2021/12/26 05:53:19;;;;;;;3.78;2.22;;;-4.70;72.60;;;;;;5116484;28;20046;-70
2021/12/26 05:55:45;;;;;;;3.70;2.03;;;-4.70;72.50;;;;;;5114816;28;20050;-70
2021/12/26 05:58:11;;;;;;;5.28;2.42;;;-4.70;72.50;;;;;;5114989;28;20410;-70
2021/12/26 06:00:36;;;;;;;5.05;2.30;;;-4.70;72.30;;;;;;5115075;28;20051;-69
2021/12/26 06:03:02;;;;;;;5.82;3.13;;;-4.80;72.20;;;;;;5114885;28;20118;-70
2021/12/26 06:05:28;;;;;;;4.32;2.45;;;-4.60;72.30;;;;;;5114853;28;20075;-70
2021/12/26 06:07:53;;;;;;;4.70;2.05;;;-4.70;72.10;;;;;;5115659;28;20058;-70
2021/12/26 06:10:19;;;;;;;7.22;2.40;;;-4.80;72.70;;;;;;5116507;28;20074;-69
2021/12/26 06:12:45;;;;;;;4.60;2.78;;;-4.80;72.90;;;;;;5114637;28;20048;-69
2021/12/26 06:15:12;;;;;;;5.25;2.72;;;-4.80;73.20;;;;;;5115777;28;20081;-70
2021/12/26 06:17:38;;;;;;;7.65;2.58;;;-4.80;73.20;;;;;;5114420;28;20043;-69
2021/12/26 06:20:05;;;;;;;3.60;2.30;;;-4.80;73.30;;;;;;5116264;28;20043;-70
2021/12/26 06:22:30;;;;;;;4.20;2.65;;;-4.70;73.20;;;;;;5115649;28;20118;-69
2021/12/26 06:24:56;;;;;;;6.43;2.85;;;-4.70;72.90;;;;;;5116303;28;20111;-69
2021/12/26 06:27:22;;;;;;;5.82;2.88;;;-4.70;72.90;;;;;;5115734;28;20040;-70
2021/12/26 06:29:48;;;;;;;5.00;2.75;;;-4.80;73.50;;;;;;5115709;28;20497;-70
2021/12/26 06:32:13;;;;;;;5.55;2.83;;;-4.80;73.20;;;;;;5115961;28;20036;-69
2021/12/26 06:34:39;;;;;;;6.40;3.53;;;-4.80;73.60;;;;;;5114382;28;20043;-70
2021/12/26 06:37:05;;;;;;;4.65;2.70;;;-4.80;73.80;;;;;;5113668;28;20046;-70
2021/12/26 06:39:30;;;;;;;5.20;3.25;;;-4.80;73.40;;;;;;5115544;28;20027;-70
2021/12/26 06:41:56;;;;;;;5.80;2.75;;;-4.90;73.50;;;;;;5115168;28;20518;-69
2021/12/26 06:44:22;;;;;;;4.60;3.17;;;-4.90;73.90;;;;;;5115169;28;20071;-69
2021/12/26 06:46:47;;;;;;;5.30;2.83;;;-4.90;74.00;;;;;;5115169;28;20048;-69
2021/12/26 06:49:17;;;;;;;3.97;2.30;;;-4.90;74.50;;;;;;5115130;28;20510;-70
2021/12/26 06:51:45;;;;;;;6.55;3.47;;;-4.90;74.50;;;;;;5115065;28;20043;-70
2021/12/26 06:54:10;;;;;;;6.47;3.00;;;-4.90;74.10;;;;;;5114837;28;20040;-70
2021/12/26 06:56:36;;;;;;;4.97;2.78;;;-4.90;73.90;;;;;;5114966;28;20040;-70
2021/12/26 06:59:02;;;;;;;7.32;3.50;;;-4.90;73.80;;;;;;5114990;28;20048;-70
2021/12/26 07:01:27;;;;;;;4.82;3.03;;;-4.90;73.90;;;;;;5113588;28;20040;-70
2021/12/26 07:03:54;;;;;;;7.13;2.75;;;-4.80;72.90;;;;;;5114815;28;20119;-69
2021/12/26 07:06:20;;;;;;;4.43;2.40;;;-4.90;72.90;;;;;;5114730;28;20111;-70
2021/12/26 07:08:45;;;;;;;4.35;2.58;;;-4.90;72.70;;;;;;5114710;28;20044;-69
2021/12/26 07:11:11;;;;;;;4.53;2.67;;;-4.80;72.60;;;;;;5115102;28;20035;-70
2021/12/26 07:13:36;;;;;;;4.95;3.17;;;-4.80;71.80;;;;;;5114831;28;20396;-69
2021/12/26 07:16:02;;;;;;;9.82;2.97;;;-4.70;71.50;;;;;;5113904;28;20133;-69
2021/12/26 07:18:28;;;;;;;4.05;2.63;;;-4.90;70.90;;;;;;5114992;28;20040;-69
2021/12/26 07:20:54;;;;;;;7.03;3.10;;;-4.80;71.40;;;;;;5115170;28;20052;-69
2021/12/26 07:23:20;;;;;;;7.45;2.72;;;-4.80;71.50;;;;;;5114485;28;20430;-69
2021/12/26 07:25:45;;;;;;;5.95;2.88;;;-4.80;71.30;;;;;;5114363;28;20126;-70
2021/12/26 07:28:11;;;;;;;4.50;3.30;;;-4.80;71.60;;;;;;5114525;28;20491;-69
2021/12/26 07:30:37;;;;;;;3.63;2.42;;;-4.80;71.80;;;;;;5114644;28;20039;-70
2021/12/26 07:33:02;;;;;;;7.43;3.17;;;-4.90;71.70;;;;;;5113403;28;20088;-70
2021/12/26 07:35:28;;;;;;;3.65;2.83;;;-4.90;71.90;;;;;;5114367;28;20488;-70
2021/12/26 07:37:53;;;;;;;5.40;3.63;;;-4.80;71.50;;;;;;5113816;28;20038;-68
2021/12/26 07:40:19;;;;;;;8.18;3.28;;;-4.80;71.60;;;;;;5114348;28;20067;-69
2021/12/26 07:42:46;;;;;;;4.82;3.35;;;-4.80;71.40;;;;;;5114464;28;20039;-70
2021/12/26 07:45:12;;;;;;;7.28;3.30;;;-4.80;71.50;;;;;;5113988;28;20390;-70
2021/12/26 07:47:39;;;;;;;5.30;2.85;;;-4.80;71.70;;;;;;5113846;27;20039;-69
2021/12/26 07:50:06;;;;;;;6.25;2.83;;;-4.80;71.90;;;;;;5114096;28;20035;-71
2021/12/26 07:52:36;;;;;;;4.47;2.92;;;-4.80;72.10;;;;;;5112972;28;20043;-70
2021/12/26 07:55:03;;;;;;;5.40;3.30;;;-4.90;72.40;;;;;;5110574;28;20468;-69
2021/12/26 07:57:29;;;;;;;5.60;2.97;;;-4.90;72.60;;;;;;5102623;28;20044;-69
2021/12/26 07:59:55;;;;;;;4.38;3.15;;;-4.90;72.70;;;;;;5114493;28;20032;-70
2021/12/26 08:02:21;;;;;;;4.15;3.13;;;-4.90;72.40;;;;;;5113969;28;20761;-70
2021/12/26 08:04:47;;;;;;;5.57;3.85;;;-4.90;72.20;;;;;;5114196;28;20079;-69
2021/12/26 08:07:14;;;;;;;3.28;2.50;;;-4.70;72.10;;;;;;5113458;27;20071;-69
2021/12/26 08:09:40;;;;;;;6.50;3.80;;;-4.70;71.90;;;;;;5113820;28;20054;-69
2021/12/26 08:12:06;;;;;;;5.10;3.72;;;-4.80;71.90;;;;;;5095791;28;20114;-70
2021/12/26 08:14:31;;;;;;;6.03;4.25;;;-4.80;72.10;;;;;;5113872;28;20031;-69
2021/12/26 08:16:57;;;;;;;6.80;4.88;;;-4.70;72.10;;;;;;5113480;28;20043;-70
2021/12/26 08:19:23;;;;;;;8.10;3.90;;;-4.70;72.60;;;;;;5116648;28;20036;-70
2021/12/26 08:21:52;;;;;;;6.78;3.88;;;-4.80;72.90;;;;;;5115310;28;20063;-70
2021/12/26 08:24:19;;;;;;;6.25;4.35;;;-4.70;72.90;;;;;;5112375;28;20115;-69
2021/12/26 08:26:49;;;;;;;8.60;4.50;;;-4.70;72.80;;;;;;5113525;28;20028;-69
2021/12/26 08:29:15;;;;;;;5.57;4.20;;;-4.60;72.80;;;;;;5117517;28;20480;-70
2021/12/26 08:31:41;;;;;;;6.90;4.20;;;-4.60;72.60;;;;;;5117890;28;20423;-71
2021/12/26 08:34:07;;;;;;;6.85;4.10;;;-4.60;72.50;;;;;;5117704;28;20036;-70
2021/12/26 08:36:32;;;;;;;7.57;3.80;;;-4.70;73.10;;;;;;5116042;28;20533;-70
2021/12/26 08:38:59;;;;;;;5.55;3.75;;;-4.60;73.50;;;;;;5117941;28;20043;-68
2021/12/26 08:41:24;;;;;;;5.93;3.65;;;-4.70;73.50;;;;;;5099704;28;20098;-70
2021/12/26 08:43:50;;;;;;;6.32;3.65;;;-4.70;73.80;;;;;;5116293;28;20042;-70
2021/12/26 08:46:16;;;;;;;6.50;4.35;;;-4.60;74.20;;;;;;5098799;28;20119;-70
2021/12/26 08:48:42;;;;;;;6.90;3.83;;;-4.60;74.30;;;;;;5117503;28;20566;-69
2021/12/26 08:51:07;;;;;;;7.55;4.53;;;-4.50;74.60;;;;;;5117524;28;20123;-71
2021/12/26 08:53:33;;;;;;;7.45;4.68;;;-4.50;73.80;;;;;;5116178;28;20031;-71
2021/12/26 08:56:02;;;;;;;6.25;3.88;;;-4.50;74.10;;;;;;5116017;28;20097;-70
2021/12/26 08:58:28;;;;;;;5.85;4.68;;;-4.40;74.00;;;;;;5116117;28;20096;-71
2021/12/26 09:00:55;;;;;;;8.27;5.20;;;-4.40;73.70;;;;;;5112449;28;20055;-73
2021/12/26 09:03:21;;;;;;;10.50;4.80;;;-4.30;73.20;;;;;;5111635;28;20123;-69
2021/12/26 09:05:46;;;;;;;8.02;4.25;;;-4.30;73.30;;;;;;5117332;28;20114;-70
2021/12/26 09:08:12;;;;;;;5.35;3.80;;;-4.20;73.10;;;;;;5117126;28;20048;-69
2021/12/26 09:10:39;;;;;;;7.00;4.05;;;-4.20;72.70;;;;;;5117498;28;20132;-71
2021/12/26 09:13:06;;;;;;;5.72;4.13;;;-4.00;72.10;;;;;;5098939;28;20075;-71
2021/12/26 09:15:32;;;;;;;9.75;5.97;;;-4.10;71.90;;;;;;5116737;28;20036;-70
2021/12/26 09:17:59;;;;;;;8.77;4.57;;;-4.20;72.40;;;;;;5116602;28;20114;-70
2021/12/26 09:20:25;;;;;;;7.25;4.20;;;-4.20;72.70;;;;;;5116915;28;20039;-71
2021/12/26 09:22:51;;;;;;;6.10;3.85;;;-4.00;72.20;;;;;;5116936;28;20550;-71
2021/12/26 09:25:17;;;;;;;9.30;4.60;;;-3.90;71.90;;;;;;5117158;28;20066;-70
2021/12/26 09:27:43;;;;;;;5.68;3.92;;;-3.90;72.10;;;;;;5116348;28;20111;-69
2021/12/26 09:30:11;;;;;;;8.20;3.83;;;-3.70;71.70;;;;;;5115949;28;20043;-70
2021/12/26 09:32:37;;;;;;;7.10;4.00;;;-3.80;71.90;;;;;;5116663;28;20106;-70
2021/12/26 09:35:04;;;;;;;7.45;4.35;;;-3.90;72.20;;;;;;5117043;28;20141;-71
2021/12/26 09:37:30;;;;;;;8.75;4.22;;;-3.90;72.50;;;;;;5116109;28;20028;-71
2021/12/26 09:39:55;;;;;;;5.18;3.65;;;-3.80;72.80;;;;;;5102929;28;20478;-71
2021/12/26 09:42:24;;;;;;;5.70;4.13;;;-3.80;72.90;;;;;;5115303;28;20047;-71
2021/12/26 09:44:50;;;;;;;7.43;4.22;;;-3.80;72.80;;;;;;5116151;28;20036;-70
2021/12/26 09:47:15;;;;;;;7.30;3.83;;;-3.70;73.00;;;;;;5115858;28;20125;-70
2021/12/26 09:49:41;;;;;;;6.45;3.75;;;-3.60;72.70;;;;;;5115174;28;20463;-71
2021/12/26 09:52:07;;;;;;;5.63;3.97;;;-3.60;72.70;;;;;;5116577;28;20047;-71
2021/12/26 09:54:33;;;;;;;7.10;4.28;;;-3.50;72.90;;;;;;5083818;28;20081;-72
2021/12/26 09:56:59;;;;;;;5.85;4.38;;;-3.60;73.50;;;;;;5116275;28;20046;-70
2021/12/26 09:59:27;;;;;;;9.10;3.83;;;-3.50;73.50;;;;;;5114702;28;20398;-70
2021/12/26 10:01:55;;;;;;;4.75;3.38;;;-3.30;73.50;;;;;;5116178;28;20040;-71
2021/12/26 10:04:32;;;;;;;7.05;4.07;;;-3.40;73.30;;;;;;5097962;28;20047;-71
2021/12/26 10:07:05;;;;;;;5.22;3.85;;;-3.30;73.50;;;;;;5095144;28;20040;-70
2021/12/26 10:09:32;;;;;;;5.72;3.63;;;-3.20;73.50;;;;;;5095348;28;20510;-70
2021/12/26 10:11:59;;;;;;;6.18;4.25;;;-3.20;73.00;;;;;;5095845;28;20038;-71
2021/12/26 10:14:30;;;;;;;9.75;4.13;;;-3.10;73.60;;;;;;5095088;28;20044;-72
2021/12/26 10:17:08;;;;;;;5.45;3.97;;;-3.10;74.10;;;;;;5099185;28;20533;-70
2021/12/26 10:19:44;;;;;;;8.07;3.65;;;-3.00;74.60;;;;;;5101150;28;20044;-70
2021/12/26 10:22:11;;;;;;;7.20;4.10;;;-2.90;73.40;;;;;;5098119;28;20544;-70
2021/12/26 10:24:44;;;;;;;6.07;3.40;;;-2.80;73.20;;;;;;5099587;28;20035;-70
2021/12/26 10:27:13;;;;;;;5.22;3.58;;;-2.60;72.80;;;;;;5115122;28;20075;-70
2021/12/26 10:29:58;;;;;;;7.65;3.90;;;-2.70;73.20;;;;;;5092866;28;20114;-71
2021/12/26 10:32:28;;;;;;;6.43;3.60;;;-2.60;72.30;;;;;;5093635;28;20456;-70
2021/12/26 10:35:05;;;;;;;9.07;4.05;;;-2.60;72.40;;;;;;5099956;28;20083;-70
2021/12/26 10:37:35;;;;;;;7.50;3.90;;;-2.60;72.30;;;;;;5115242;28;20040;-70
2021/12/26 10:40:06;;;;;;;12.98;4.97;;;-2.50;72.20;;;;;;5115633;28;20047;-71
2021/12/26 10:42:38;;;;;;;6.43;4.50;;;-2.40;71.70;;;;;;5094648;28;20053;-71
2021/12/26 10:45:10;;;;;;;5.07;3.63;;;-2.40;71.70;;;;;;5094994;28;20075;-70
2021/12/26 10:47:39;;;;;;;6.32;3.85;;;-2.30;71.20;;;;;;5092785;28;20306;-70
2021/12/26 10:50:26;;;;;;;8.65;3.67;;;-2.40;71.50;;;;;;5093242;28;20116;-70
2021/12/26 10:52:53;;;;;;;7.72;3.78;;;-2.30;71.00;;;;;;5095391;28;20042;-70
2021/12/26 10:55:39;;;;;;;5.75;4.32;;;-2.30;71.10;;;;;;5093576;28;20071;-70
2021/12/26 10:58:20;;;;;;;5.38;3.38;;;-2.30;71.40;;;;;;5093447;28;20079;-70
2021/12/26 11:00:50;;;;;;;5.75;3.45;;;-2.20;71.60;;;;;;5101377;28;20040;-71
2021/12/26 11:03:22;;;;;;;6.18;4.20;;;-2.20;71.20;;;;;;5094222;28;20040;-71
2021/12/26 11:05:50;;;;;;;5.68;3.60;;;-2.20;70.70;;;;;;5109668;28;20076;-70
2021/12/26 11:08:26;;;;;;;6.95;4.53;;;-2.10;70.30;;;;;;5106971;28;20448;-70
2021/12/26 11:10:53;;;;;;;6.55;3.72;;;-2.10;70.40;;;;;;5115169;28;20050;-72
2021/12/26 11:13:26;;;;;;;7.22;4.57;;;-2.10;70.70;;;;;;5114893;28;20032;-70
2021/12/26 11:15:57;;;;;;;5.82;3.55;;;-2.00;70.90;;;;;;5114638;28;20044;-70
2021/12/26 11:18:24;;;;;;;5.85;3.60;;;-1.90;69.70;;;;;;5114292;28;20046;-69
2021/12/26 11:20:52;;;;;;;9.98;4.32;;;-1.80;68.40;;;;;;5108421;28;20051;-69
2021/12/26 11:23:21;;;;;;;7.78;4.28;;;-1.80;67.80;;;;;;5106195;28;20118;-70
2021/12/26 11:25:53;;;;;;;7.28;3.97;;;-1.80;68.20;;;;;;5114598;28;20403;-69
2021/12/26 11:28:26;;;;;;;5.80;3.85;;;-1.70;68.30;;;;;;5114719;28;20042;-70
2021/12/26 11:30:58;;;;;;;7.32;4.53;;;-1.70;68.10;;;;;;5114924;28;20429;-70
2021/12/26 11:33:24;;;;;;;5.30;3.42;;;-1.60;67.70;;;;;;5115144;28;20039;-70
2021/12/26 11:35:52;;;;;;;6.72;4.05;;;-1.60;67.80;;;;;;5111295;28;20032;-70
2021/12/26 11:38:22;;;;;;;5.93;3.55;;;-1.60;67.40;;;;;;5103674;28;20063;-70
2021/12/26 11:40:50;;;;;;;8.38;4.20;;;-1.60;67.70;;;;;;5114478;28;20059;-70
2021/12/26 11:43:41;;;;;;;5.97;4.10;;;-1.50;68.10;;;;;;5096169;28;20082;-69
2021/12/26 11:46:35;;;;;;;7.68;4.15;;;-1.40;68.10;;;;;;5088878;28;20079;-70
2021/12/26 11:49:33;;;;;;;7.05;4.13;;;-1.30;67.60;;;;;;5114094;27;20070;-70
2021/12/26 11:52:21;;;;;;;7.57;4.38;;;-1.20;67.80;;;;;;5096832;28;20044;-70
2021/12/26 11:54:57;;;;;;;7.60;3.58;;;-1.20;68.00;;;;;;5114009;28;20032;-69
2021/12/26 11:58:13;;;;;;;7.15;4.10;;;-1.20;67.50;;;;;;5101065;28;20170;-69
2021/12/26 12:00:46;;;;;;;6.30;4.72;;;-1.20;68.00;;;;;;5105999;28;20044;-70
2021/12/26 12:03:22;;;;;;;5.40;3.33;;;-1.00;68.10;;;;;;5109548;28;20065;-69
2021/12/26 12:05:48;;;;;;;5.45;3.92;;;-1.10;68.20;;;;;;5092515;28;20032;-69
2021/12/26 12:08:16;;;;;;;6.82;4.95;;;-1.00;67.70;;;;;;5101233;28;20032;-69
2021/12/26 12:10:55;;;;;;;8.48;4.35;;;-0.90;68.00;;;;;;5100851;28;20032;-70
2021/12/26 12:13:26;;;;;;;7.45;4.63;;;-0.90;67.50;;;;;;5102429;28;20064;-70
2021/12/26 12:16:06;;;;;;;6.18;3.55;;;-0.90;67.50;;;;;;5105543;28;20403;-70
2021/12/26 12:18:45;;;;;;;5.45;3.55;;;-0.90;68.10;;;;;;5108099;28;20043;-71
2021/12/26 12:21:29;;;;;;;6.10;3.60;;;-0.80;68.30;;;;;;5092369;28;20127;-70
2021/12/26 12:24:12;;;;;;;7.20;3.63;;;-0.80;68.50;;;;;;5093472;28;20036;-70
2021/12/26 12:26:56;;;;;;;7.15;3.70;;;-0.70;68.20;;;;;;5095733;28;20484;-72
2021/12/26 12:29:23;;;;;;;11.25;5.00;;;-0.70;67.90;;;;;;5110085;28;20050;-70
2021/12/26 12:32:08;;;;;;;7.43;4.13;;;-0.70;68.30;;;;;;5104617;28;20040;-69
2021/12/26 12:34:46;;;;;;;6.68;3.67;;;-0.60;68.50;;;;;;5093345;28;20040;-70
2021/12/26 12:37:30;;;;;;;5.82;3.72;;;-0.50;69.00;;;;;;5092963;28;20403;-69
2021/12/26 12:40:19;;;;;;;6.60;3.88;;;-0.50;68.60;;;;;;5093139;28;20488;-70
2021/12/26 12:43:06;;;;;;;6.65;3.85;;;-0.50;68.90;;;;;;5075208;28;20048;-69
2021/12/26 12:46:00;;;;;;;6.07;3.85;;;-0.50;69.00;;;;;;5092180;28;20044;-69
2021/12/26 12:48:27;;;;;;;4.97;3.53;;;-0.50;69.30;;;;;;5093443;28;20056;-70
2021/12/26 12:50:59;;;;;;;6.88;3.88;;;-0.40;69.40;;;;;;5093389;28;20618;-70
2021/12/26 12:53:43;;;;;;;7.50;4.03;;;-0.40;70.00;;;;;;5093512;28;20040;-71
2021/12/26 12:56:30;;;;;;;6.93;3.40;;;-0.40;70.20;;;;;;5093318;28;20241;-70